Time;durP1;ratioP1;P1;durP2;ratioP2;P2;SDS_P1;SDS_P2;PMS_P1;PMS_P2;Temp;Humidity;BMP_temperature;BMP_pressure;BME280_temperature;BME280_humidity;BME280_pressure;Samples;Min_cycle;Max_cycle;Signal;HPM_P1;HPM_P2
2023/12/08 00:00:34;;;;;;;10.57;7.80;;;3.00;99.90;;;;;;5077956;28;20886;-63
2023/12/08 00:03:01;;;;;;;7.50;6.23;;;3.00;99.90;;;;;;5078274;28;20489;-63
2023/12/08 00:05:30;;;;;;;9.93;7.03;;;3.00;99.90;;;;;;5077702;28;20468;-63
2023/12/08 00:07:57;;;;;;;9.10;7.27;;;3.00;99.90;;;;;;5077980;28;20504;-64
2023/12/08 00:10:25;;;;;;;11.67;8.20;;;3.00;99.90;;;;;;5078174;28;20453;-63
2023/12/08 00:12:52;;;;;;;7.30;6.10;;;3.00;99.90;;;;;;5077646;28;20453;-63
2023/12/08 00:15:19;;;;;;;11.60;8.60;;;3.10;99.90;;;;;;5077543;28;20497;-63
2023/12/08 00:17:46;;;;;;;10.47;8.07;;;3.00;99.90;;;;;;5077597;28;20511;-63
2023/12/08 00:20:13;;;;;;;12.17;7.50;;;3.00;99.90;;;;;;5077667;28;20463;-63
2023/12/08 00:22:42;;;;;;;11.97;7.63;;;2.90;99.90;;;;;;5077974;28;20532;-63
2023/12/08 00:25:10;;;;;;;9.77;8.07;;;2.90;99.90;;;;;;5077721;28;20460;-63
2023/12/08 00:27:38;;;;;;;11.23;7.90;;;2.90;99.90;;;;;;5077348;28;20467;-63
2023/12/08 00:30:07;;;;;;;11.37;7.90;;;2.90;1.00;;;;;;5077267;28;20457;-68
2023/12/08 00:32:35;;;;;;;11.03;8.43;;;2.90;1.00;;;;;;5077799;28;20457;-63
2023/12/08 00:35:02;;;;;;;11.33;8.60;;;2.90;1.00;;;;;;5077987;28;20457;-64
2023/12/08 00:37:29;;;;;;;11.03;8.40;;;2.90;1.00;;;;;;5077332;28;20490;-63
2023/12/08 00:39:57;;;;;;;9.43;7.60;;;2.80;1.00;;;;;;5077907;28;20962;-63
2023/12/08 00:42:26;;;;;;;10.77;9.03;;;2.80;1.00;;;;;;5077223;28;20544;-64
2023/12/08 00:44:54;;;;;;;10.27;8.00;;;2.70;1.00;;;;;;5077735;28;20742;-63
2023/12/08 00:47:21;;;;;;;10.77;8.53;;;2.80;1.00;;;;;;5077511;28;20477;-65
2023/12/08 00:49:48;;;;;;;12.57;9.33;;;2.80;1.00;;;;;;5077809;28;20476;-63
2023/12/08 00:52:15;;;;;;;13.30;9.53;;;2.70;1.00;;;;;;5077586;28;20457;-63
2023/12/08 00:54:43;;;;;;;11.70;9.20;;;2.70;1.00;;;;;;5078385;28;20489;-63
2023/12/08 00:57:11;;;;;;;10.97;7.80;;;2.70;1.00;;;;;;5077599;28;20460;-63
2023/12/08 00:59:38;;;;;;;11.97;9.17;;;2.70;1.00;;;;;;5078780;28;20898;-63
2023/12/08 01:02:05;;;;;;;14.90;8.50;;;2.70;1.00;;;;;;5081877;28;20496;-64
2023/12/08 01:04:33;;;;;;;12.07;8.80;;;2.80;1.00;;;;;;5081284;28;20489;-63
2023/12/08 01:07:00;;;;;;;11.00;8.77;;;2.80;1.00;;;;;;5081535;28;20513;-63
2023/12/08 01:09:27;;;;;;;15.00;10.60;;;2.70;1.00;;;;;;5081263;28;20495;-63
2023/12/08 01:11:54;;;;;;;12.30;8.77;;;2.70;1.00;;;;;;5081910;28;20463;-67
2023/12/08 01:14:23;;;;;;;12.73;9.43;;;2.70;1.00;;;;;;5081819;28;20906;-64
2023/12/08 01:16:50;;;;;;;12.83;8.63;;;2.70;1.00;;;;;;5081310;28;20949;-63
2023/12/08 01:19:17;;;;;;;12.30;9.40;;;2.70;1.00;;;;;;5081178;28;20461;-63
2023/12/08 01:21:45;;;;;;;11.03;9.20;;;2.80;1.00;;;;;;5080702;28;20909;-63
2023/12/08 01:24:13;;;;;;;12.00;9.27;;;2.80;1.00;;;;;;5080691;28;20698;-63
2023/12/08 01:26:44;;;;;;;13.97;9.07;;;2.80;1.00;;;;;;5081091;28;20466;-63
2023/12/08 01:29:11;;;;;;;11.93;9.33;;;2.80;1.00;;;;;;5080874;28;20879;-63
2023/12/08 01:31:40;;;;;;;11.40;8.40;;;2.80;1.00;;;;;;5081142;28;20947;-63
2023/12/08 01:34:08;;;;;;;11.47;8.87;;;2.80;1.00;;;;;;5080814;28;20459;-63
2023/12/08 01:36:35;;;;;;;11.30;8.67;;;2.80;1.00;;;;;;5080994;28;20753;-64
2023/12/08 01:39:02;;;;;;;11.70;9.50;;;2.80;1.00;;;;;;5080880;28;20427;-62
2023/12/08 01:41:29;;;;;;;11.00;8.90;;;2.80;1.00;;;;;;5080288;28;20837;-63
2023/12/08 01:43:57;;;;;;;12.03;8.60;;;2.80;1.00;;;;;;5080430;28;20985;-63
2023/12/08 01:46:24;;;;;;;11.83;8.67;;;2.80;1.00;;;;;;5079668;28;20470;-65
2023/12/08 01:48:53;;;;;;;11.10;8.33;;;2.80;1.00;;;;;;5079598;28;20522;-63
2023/12/08 01:51:21;;;;;;;11.73;8.70;;;2.80;1.00;;;;;;5080247;28;20461;-64
2023/12/08 01:53:48;;;;;;;10.40;8.30;;;2.80;1.00;;;;;;5080844;28;20454;-63
2023/12/08 01:56:16;;;;;;;11.80;9.10;;;2.80;1.00;;;;;;5080153;28;20461;-63
2023/12/08 01:58:45;;;;;;;12.47;8.90;;;2.80;1.00;;;;;;5079346;28;20579;-63
2023/12/08 02:01:12;;;;;;;10.97;8.40;;;2.80;1.00;;;;;;5079932;28;20904;-62
2023/12/08 02:03:40;;;;;;;12.37;9.63;;;2.80;1.00;;;;;;5079923;28;20493;-63
2023/12/08 02:06:10;;;;;;;13.40;9.43;;;2.80;1.00;;;;;;5079734;28;20902;-64
2023/12/08 02:08:38;;;;;;;11.80;8.90;;;2.90;1.00;;;;;;5080074;28;20481;-63
2023/12/08 02:11:05;;;;;;;12.30;9.10;;;2.80;1.00;;;;;;5079899;28;20556;-63
2023/12/08 02:13:34;;;;;;;12.60;9.33;;;2.80;1.00;;;;;;5080155;28;20922;-64
2023/12/08 02:16:08;;;;;;;13.80;9.03;;;2.80;1.00;;;;;;5080574;28;20890;-62
2023/12/08 02:18:38;;;;;;;10.80;8.77;;;2.90;1.00;;;;;;5079716;28;20461;-63
2023/12/08 02:21:08;;;;;;;11.37;8.93;;;2.80;1.00;;;;;;5080454;28;20536;-64
2023/12/08 02:23:37;;;;;;;13.53;9.90;;;2.90;1.00;;;;;;5079409;28;20489;-63
2023/12/08 02:26:06;;;;;;;12.47;9.57;;;2.90;1.00;;;;;;5079666;28;20457;-62
2023/12/08 02:28:34;;;;;;;12.03;9.70;;;2.90;1.00;;;;;;5079890;28;20552;-63
2023/12/08 02:31:04;;;;;;;11.17;9.23;;;2.90;1.00;;;;;;5079902;28;20820;-63
2023/12/08 02:33:33;;;;;;;11.90;9.20;;;2.90;1.00;;;;;;5079545;28;20552;-62
2023/12/08 02:36:01;;;;;;;13.23;9.83;;;2.90;1.00;;;;;;5079404;28;20548;-63
2023/12/08 02:38:30;;;;;;;13.43;10.80;;;2.90;1.00;;;;;;5079875;28;20552;-63
2023/12/08 02:40:57;;;;;;;12.97;9.70;;;2.90;1.00;;;;;;5079184;28;20518;-62
2023/12/08 02:43:26;;;;;;;11.77;9.03;;;2.90;1.00;;;;;;5079386;28;20489;-63
2023/12/08 02:45:53;;;;;;;10.17;8.63;;;2.90;1.00;;;;;;5079086;28;20544;-63
2023/12/08 02:48:20;;;;;;;13.30;9.80;;;2.90;1.00;;;;;;5079120;28;20468;-63
2023/12/08 02:50:47;;;;;;;11.60;9.53;;;2.90;1.00;;;;;;5079181;28;20493;-64
2023/12/08 02:53:15;;;;;;;13.17;10.13;;;2.90;1.00;;;;;;5079516;28;20547;-62
2023/12/08 02:55:42;;;;;;;14.57;10.30;;;2.90;1.00;;;;;;5079323;28;20464;-65
2023/12/08 02:58:09;;;;;;;13.63;10.07;;;2.80;1.00;;;;;;5080906;28;20559;-66
2023/12/08 03:00:38;;;;;;;15.43;10.00;;;2.80;1.00;;;;;;5081199;28;20530;-65
2023/12/08 03:03:05;;;;;;;13.83;10.40;;;2.60;1.00;;;;;;5080566;28;20460;-67
2023/12/08 03:05:32;;;;;;;14.40;10.97;;;2.60;1.00;;;;;;5080020;28;20457;-65
2023/12/08 03:08:00;;;;;;;14.93;10.90;;;2.50;1.00;;;;;;5079370;28;20994;-66
2023/12/08 03:10:27;;;;;;;13.00;10.27;;;2.50;1.00;;;;;;5082570;28;20908;-69
2023/12/08 03:12:54;;;;;;;14.30;10.60;;;2.40;1.00;;;;;;5082626;28;20483;-69
2023/12/08 03:15:23;;;;;;;12.87;10.20;;;2.40;1.00;;;;;;5081826;28;20461;-62
2023/12/08 03:17:51;;;;;;;14.43;11.13;;;2.40;17.70;;;;;;5081263;28;20465;-68
2023/12/08 03:20:18;;;;;;;14.47;10.50;;;2.40;2.20;;;;;;5081331;28;20728;-69
2023/12/08 03:22:46;;;;;;;16.17;11.43;;;2.30;34.60;;;;;;5079973;28;20797;-66
2023/12/08 03:25:13;;;;;;;15.57;11.27;;;2.30;90.60;;;;;;5079607;28;20500;-67
2023/12/08 03:27:40;;;;;;;14.53;11.43;;;2.30;34.70;;;;;;5079490;28;20457;-66
2023/12/08 03:30:09;;;;;;;15.43;11.70;;;2.30;91.00;;;;;;5079357;28;20501;-67
2023/12/08 03:32:36;;;;;;;13.10;10.97;;;2.30;99.90;;;;;;5079869;28;20556;-67
2023/12/08 03:35:06;;;;;;;17.63;11.70;;;2.30;94.50;;;;;;5079554;28;20552;-69
2023/12/08 03:37:34;;;;;;;14.33;12.37;;;2.20;99.90;;;;;;5080393;28;20462;-65
2023/12/08 03:40:01;;;;;;;15.40;11.70;;;2.30;26.90;;;;;;5080136;28;20471;-69
2023/12/08 03:42:31;;;;;;;16.23;11.20;;;2.20;90.90;;;;;;5080505;28;20475;-69
2023/12/08 03:44:58;;;;;;;13.27;11.00;;;2.20;99.90;;;;;;5080965;28;20490;-75
2023/12/08 03:47:25;;;;;;;14.90;11.60;;;2.30;21.90;;;;;;5079438;28;20890;-71
2023/12/08 03:49:53;;;;;;;16.47;11.83;;;2.30;1.00;;;;;;5079878;28;20449;-72
2023/12/08 03:52:22;;;;;;;14.37;10.30;;;2.30;1.00;;;;;;5079177;28;20464;-75
2023/12/08 03:54:49;;;;;;;15.17;11.37;;;2.30;1.00;;;;;;5079103;28;20545;-68
2023/12/08 03:57:17;;;;;;;14.80;11.23;;;2.40;1.00;;;;;;5080351;28;20556;-72
2023/12/08 03:59:44;;;;;;;15.00;11.27;;;2.40;1.00;;;;;;5081196;28;20467;-77
2023/12/08 04:02:11;;;;;;;12.70;9.90;;;2.40;1.00;;;;;;5085364;28;20469;-77
2023/12/08 04:04:38;;;;;;;14.70;10.73;;;2.40;1.00;;;;;;5088138;28;20877;-73
2023/12/08 04:07:06;;;;;;;14.67;10.93;;;2.40;1.00;;;;;;5086968;28;20474;-71
2023/12/08 04:09:35;;;;;;;13.50;10.23;;;2.40;1.00;;;;;;5042776;28;20459;-73
2023/12/08 04:12:02;;;;;;;13.80;10.73;;;2.40;1.00;;;;;;5047333;28;20462;-74
2023/12/08 04:14:29;;;;;;;13.70;10.80;;;2.40;1.00;;;;;;5045563;28;20474;-74
2023/12/08 04:16:56;;;;;;;18.80;12.13;;;2.40;1.00;;;;;;5045411;28;20453;-74
2023/12/08 04:19:24;;;;;;;16.40;12.27;;;2.40;1.00;;;;;;5043772;28;20457;-73
2023/12/08 04:21:52;;;;;;;18.37;12.50;;;2.50;1.00;;;;;;5042254;28;20463;-73
2023/12/08 04:24:22;;;;;;;14.60;11.37;;;2.50;1.00;;;;;;5040877;28;20501;-72
2023/12/08 04:26:51;;;;;;;14.40;10.53;;;2.60;1.00;;;;;;5041349;28;20542;-72
2023/12/08 04:29:18;;;;;;;13.23;10.00;;;2.50;1.00;;;;;;5041420;28;20983;-73
2023/12/08 04:31:46;;;;;;;18.40;10.97;;;2.50;1.00;;;;;;5042818;28;20931;-72
2023/12/08 04:34:13;;;;;;;17.87;11.60;;;2.50;1.00;;;;;;5040663;28;20554;-73
2023/12/08 04:36:40;;;;;;;14.13;10.77;;;2.50;1.00;;;;;;5042227;28;20622;-71
2023/12/08 04:39:08;;;;;;;17.43;10.80;;;2.50;1.00;;;;;;5041834;28;20494;-76
2023/12/08 04:41:36;;;;;;;13.67;10.30;;;2.50;1.00;;;;;;5044119;28;20486;-73
2023/12/08 04:44:05;;;;;;;15.37;11.97;;;2.60;1.00;;;;;;5044884;28;20548;-74
2023/12/08 04:46:32;;;;;;;13.73;10.83;;;2.60;1.00;;;;;;5039230;28;20566;-68
2023/12/08 04:48:59;;;;;;;14.50;11.17;;;2.60;1.00;;;;;;5037220;28;20574;-67
2023/12/08 04:51:27;;;;;;;14.20;11.57;;;2.50;73.00;;;;;;5036985;28;20451;-69
2023/12/08 04:53:54;;;;;;;16.77;11.20;;;2.50;99.90;;;;;;5037565;28;20463;-67
2023/12/08 04:56:21;;;;;;;14.87;11.93;;;2.50;99.90;;;;;;5037658;28;20447;-71
2023/12/08 04:58:49;;;;;;;13.17;10.83;;;2.50;99.90;;;;;;5038557;28;20471;-68
2023/12/08 05:01:18;;;;;;;15.47;11.67;;;2.40;99.90;;;;;;5038139;28;20466;-69
2023/12/08 05:03:46;;;;;;;17.40;13.37;;;2.40;99.90;;;;;;5038163;28;20469;-68
2023/12/08 05:06:13;;;;;;;14.23;12.57;;;2.40;1.00;;;;;;5038420;28;20495;-67
2023/12/08 05:08:40;;;;;;;15.80;11.27;;;2.40;1.00;;;;;;5063516;28;21000;-69
2023/12/08 05:11:08;;;;;;;15.73;11.70;;;2.40;1.00;;;;;;5079343;28;20505;-69
2023/12/08 05:13:36;;;;;;;17.47;11.37;;;2.40;1.00;;;;;;5080817;28;20878;-71
2023/12/08 05:16:03;;;;;;;15.83;12.90;;;2.40;22.60;;;;;;5085483;28;20506;-69
2023/12/08 05:18:32;;;;;;;15.17;11.43;;;2.40;94.80;;;;;;5087810;28;20470;-71
2023/12/08 05:20:59;;;;;;;15.70;12.27;;;2.40;99.90;;;;;;5086580;28;20461;-73
2023/12/08 05:23:26;;;;;;;15.73;12.43;;;2.40;99.90;;;;;;5086558;28;20445;-69
2023/12/08 05:25:53;;;;;;;18.27;12.80;;;2.40;99.90;;;;;;5086758;28;20517;-71
2023/12/08 05:28:21;;;;;;;19.03;13.27;;;2.30;1.00;;;;;;5083334;28;20461;-70
2023/12/08 05:30:48;;;;;;;16.10;12.03;;;2.30;1.00;;;;;;5087541;28;20495;-67
2023/12/08 05:33:16;;;;;;;21.73;14.10;;;2.30;1.00;;;;;;5084176;28;20568;-70
2023/12/08 05:35:44;;;;;;;17.10;12.93;;;2.30;74.10;;;;;;5083615;28;20497;-71
2023/12/08 05:38:12;;;;;;;16.70;13.50;;;2.30;99.90;;;;;;5080896;28;20461;-72
2023/12/08 05:40:39;;;;;;;22.70;14.70;;;2.30;1.00;;;;;;5080376;28;20471;-72
2023/12/08 05:43:06;;;;;;;19.70;14.73;;;2.20;1.00;;;;;;5078208;28;20462;-72
2023/12/08 05:45:33;;;;;;;18.40;14.50;;;2.20;1.00;;;;;;5079337;28;20497;-74
2023/12/08 05:48:02;;;;;;;20.00;15.03;;;2.20;1.00;;;;;;5080375;28;20526;-75
2023/12/08 05:50:29;;;;;;;22.80;15.90;;;2.20;1.00;;;;;;5080432;28;20475;-75
2023/12/08 05:52:57;;;;;;;75.10;33.50;;;2.20;1.50;;;;;;5081310;28;20465;-75
2023/12/08 05:55:25;;;;;;;24.83;17.13;;;2.20;18.30;;;;;;5081368;28;20463;-75
2023/12/08 05:57:52;;;;;;;22.33;16.20;;;2.20;99.90;;;;;;5081236;28;20472;-76
2023/12/08 06:00:20;;;;;;;26.33;18.67;;;2.20;99.90;;;;;;5081878;28;20500;-76
2023/12/08 06:02:48;;;;;;;28.87;18.90;;;2.20;99.90;;;;;;5080753;28;20560;-75
2023/12/08 06:05:15;;;;;;;24.10;17.90;;;2.20;99.90;;;;;;5081410;28;20592;-75
2023/12/08 06:07:42;;;;;;;25.90;17.10;;;2.20;99.90;;;;;;5081049;28;20515;-76
2023/12/08 06:10:11;;;;;;;26.87;17.97;;;2.20;99.90;;;;;;5080405;28;20461;-74
2023/12/08 06:12:40;;;;;;;27.07;18.50;;;2.20;99.90;;;;;;5080956;28;20468;-75
2023/12/08 06:15:09;;;;;;;31.33;19.73;;;2.20;99.90;;;;;;5080235;28;20559;-75
2023/12/08 06:17:37;;;;;;;42.03;21.83;;;2.20;99.90;;;;;;5080878;28;20440;-75
2023/12/08 06:20:09;;;;;;;33.93;21.40;;;2.20;1.00;;;;;;5080532;28;20555;-76
2023/12/08 06:22:36;;;;;;;43.70;25.27;;;2.30;1.00;;;;;;5080178;28;20465;-75
2023/12/08 06:25:04;;;;;;;32.30;20.50;;;2.30;1.00;;;;;;5079802;28;20489;-74
2023/12/08 06:27:33;;;;;;;41.23;24.20;;;2.30;1.00;;;;;;5079594;28;20463;-75
2023/12/08 06:29:59;;;;;;;37.00;22.07;;;2.40;1.00;;;;;;5079982;28;20467;-75
2023/12/08 06:32:29;;;;;;;22.27;17.57;;;2.40;1.00;;;;;;5080117;28;20463;-75
2023/12/08 06:34:56;;;;;;;26.80;19.00;;;2.40;1.00;;;;;;5080262;28;20465;-75
2023/12/08 06:37:23;;;;;;;24.63;16.10;;;2.40;1.00;;;;;;5079775;28;20467;-66
2023/12/08 06:39:50;;;;;;;21.87;17.80;;;2.50;1.00;;;;;;5079593;28;20493;-66
2023/12/08 06:42:17;;;;;;;26.07;18.23;;;2.50;1.00;;;;;;5079509;28;20461;-66
2023/12/08 06:44:46;;;;;;;23.60;17.87;;;2.40;1.00;;;;;;5079502;28;20489;-67
2023/12/08 06:47:13;;;;;;;23.43;18.43;;;2.40;1.00;;;;;;5078950;28;20555;-66
2023/12/08 06:49:40;;;;;;;23.30;17.23;;;2.40;1.00;;;;;;5079598;28;20467;-66
2023/12/08 06:52:07;;;;;;;25.93;17.40;;;2.40;1.00;;;;;;5079179;28;20468;-66
2023/12/08 06:54:35;;;;;;;29.73;20.97;;;2.40;99.90;;;;;;5079810;28;20460;-66
2023/12/08 06:57:02;;;;;;;25.40;17.73;;;2.40;99.90;;;;;;5078044;28;20556;-66
2023/12/08 06:59:29;;;;;;;23.93;17.57;;;2.40;99.90;;;;;;5078879;28;20458;-66
2023/12/08 07:01:58;;;;;;;26.43;18.07;;;2.50;99.90;;;;;;5078177;28;20481;-66
2023/12/08 07:04:25;;;;;;;24.80;18.57;;;2.40;99.90;;;;;;5078027;28;20454;-66
2023/12/08 07:06:52;;;;;;;25.60;19.03;;;2.40;99.90;;;;;;5078995;28;20465;-65
2023/12/08 07:09:19;;;;;;;25.00;17.70;;;2.50;99.90;;;;;;5078500;28;20950;-66
2023/12/08 07:11:46;;;;;;;23.17;16.73;;;2.50;26.70;;;;;;5079065;28;20463;-66
2023/12/08 07:14:13;;;;;;;21.00;16.03;;;2.50;1.00;;;;;;5079009;28;20465;-66
2023/12/08 07:16:44;;;;;;;21.17;15.50;;;2.50;50.70;;;;;;5079447;28;20486;-65
2023/12/08 07:19:12;;;;;;;21.83;16.47;;;2.50;99.90;;;;;;5078562;28;20464;-66
2023/12/08 07:21:43;;;;;;;22.37;16.50;;;2.50;99.90;;;;;;5078995;28;20542;-65
2023/12/08 07:24:13;;;;;;;24.73;18.17;;;2.50;1.00;;;;;;5079108;28;20457;-66
2023/12/08 07:26:41;;;;;;;23.27;17.63;;;2.50;99.90;;;;;;5078868;28;20511;-64
2023/12/08 07:29:08;;;;;;;24.63;17.50;;;2.40;1.00;;;;;;5078283;28;20457;-64
2023/12/08 07:31:35;;;;;;;24.97;17.70;;;2.40;99.90;;;;;;5078395;28;20439;-63
2023/12/08 07:34:03;;;;;;;25.40;17.13;;;2.40;99.90;;;;;;5078398;28;20484;-64
2023/12/08 07:36:32;;;;;;;26.77;19.37;;;2.40;1.00;;;;;;5077998;28;20515;-65
2023/12/08 07:39:00;;;;;;;25.87;18.70;;;2.40;99.90;;;;;;5077845;28;20458;-64
2023/12/08 07:41:27;;;;;;;27.47;19.30;;;2.40;1.00;;;;;;5076264;28;20508;-65
2023/12/08 07:43:55;;;;;;;27.40;18.20;;;2.40;99.90;;;;;;5076437;28;20526;-65
2023/12/08 07:46:24;;;;;;;22.70;17.70;;;2.40;99.90;;;;;;5076480;28;20501;-65
2023/12/08 07:48:51;;;;;;;28.03;18.20;;;2.50;1.00;;;;;;5076489;28;20458;-64
2023/12/08 07:51:19;;;;;;;27.63;19.53;;;2.50;1.00;;;;;;5076195;28;20535;-65
2023/12/08 07:53:51;;;;;;;24.87;19.03;;;2.50;1.00;;;;;;5076662;28;20461;-65
2023/12/08 07:56:18;;;;;;;27.30;17.70;;;2.50;1.00;;;;;;5076168;28;20485;-66
2023/12/08 07:58:47;;;;;;;21.83;17.83;;;2.50;1.00;;;;;;5076547;28;20548;-66
2023/12/08 08:01:14;;;;;;;27.07;18.57;;;2.50;1.00;;;;;;5076234;28;20497;-66
2023/12/08 08:03:47;;;;;;;26.17;19.20;;;2.50;1.00;;;;;;5076936;28;20785;-67
2023/12/08 08:06:15;;;;;;;28.27;19.00;;;2.60;1.00;;;;;;5076637;28;20592;-66
2023/12/08 08:08:42;;;;;;;28.10;19.90;;;2.60;1.00;;;;;;5076244;28;20516;-67
2023/12/08 08:11:11;;;;;;;23.67;18.13;;;2.60;1.00;;;;;;5077361;28;20547;-66
2023/12/08 08:13:39;;;;;;;28.00;17.93;;;2.60;1.00;;;;;;5077425;28;20560;-66
2023/12/08 08:16:07;;;;;;;25.80;18.70;;;2.60;1.00;;;;;;5077610;28;20504;-65
2023/12/08 08:18:37;;;;;;;25.60;19.17;;;2.50;1.00;;;;;;5077715;28;20457;-66
2023/12/08 08:21:06;;;;;;;23.47;18.00;;;2.60;1.00;;;;;;5077683;28;20457;-66
2023/12/08 08:23:34;;;;;;;26.47;17.60;;;2.60;1.00;;;;;;5077168;28;20464;-66
2023/12/08 08:26:02;;;;;;;25.27;19.07;;;2.60;12.30;;;;;;5077303;28;20946;-66
2023/12/08 08:28:31;;;;;;;27.57;19.10;;;2.70;27.90;;;;;;5077365;28;20515;-66
2023/12/08 08:31:00;;;;;;;24.07;18.20;;;2.70;1.00;;;;;;5077984;28;20849;-65
2023/12/08 08:33:28;;;;;;;27.17;20.50;;;2.70;1.00;;;;;;5077035;28;20478;-66
2023/12/08 08:35:55;;;;;;;26.60;20.07;;;2.70;1.00;;;;;;5077063;28;20552;-65
2023/12/08 08:38:22;;;;;;;31.00;19.90;;;2.70;1.00;;;;;;5077544;28;20458;-66
2023/12/08 08:40:50;;;;;;;31.70;19.23;;;2.70;1.00;;;;;;5076835;28;20800;-67
2023/12/08 08:43:17;;;;;;;26.87;20.50;;;2.70;1.00;;;;;;5075567;28;20857;-67
2023/12/08 08:45:46;;;;;;;31.47;21.17;;;2.70;31.10;;;;;;5077267;28;20848;-65
2023/12/08 08:48:13;;;;;;;35.37;21.70;;;2.80;65.00;;;;;;5074923;28;20485;-66
2023/12/08 08:50:40;;;;;;;29.37;20.30;;;2.80;36.60;;;;;;5075670;28;20483;-67
2023/12/08 08:53:08;;;;;;;27.57;20.30;;;2.80;76.70;;;;;;5076703;28;20459;-66
2023/12/08 08:55:35;;;;;;;29.30;18.63;;;2.80;99.90;;;;;;5076965;28;20548;-67
2023/12/08 08:58:03;;;;;;;28.57;20.90;;;2.80;99.90;;;;;;5077045;28;20906;-66
2023/12/08 09:00:30;;;;;;;29.67;19.90;;;2.80;99.90;;;;;;5077418;28;20507;-66
2023/12/08 09:03:00;;;;;;;30.60;20.30;;;2.80;99.90;;;;;;5077047;28;20461;-66
2023/12/08 09:05:30;;;;;;;29.10;20.43;;;2.80;99.90;;;;;;5076548;28;20489;-67
2023/12/08 09:07:57;;;;;;;26.30;20.70;;;2.90;99.90;;;;;;5076906;28;20496;-66
2023/12/08 09:10:24;;;;;;;30.47;21.43;;;2.90;99.90;;;;;;5077145;28;20457;-66
2023/12/08 09:12:52;;;;;;;27.70;20.20;;;2.90;99.90;;;;;;5077009;28;20468;-66
2023/12/08 09:15:20;;;;;;;28.93;20.97;;;2.90;99.90;;;;;;5076543;28;20454;-67
2023/12/08 09:17:47;;;;;;;29.97;21.13;;;2.90;99.90;;;;;;5076672;28;20949;-66
2023/12/08 09:20:16;;;;;;;27.57;21.77;;;2.90;99.90;;;;;;5074575;28;20450;-66
2023/12/08 09:22:43;;;;;;;29.40;22.17;;;2.90;99.90;;;;;;5080536;28;20467;-66
2023/12/08 09:25:11;;;;;;;26.60;19.10;;;3.00;99.90;;;;;;5080414;28;20552;-66
2023/12/08 09:27:38;;;;;;;25.60;19.37;;;3.00;99.90;;;;;;5080547;28;20757;-66
2023/12/08 09:30:07;;;;;;;29.03;20.13;;;3.00;99.90;;;;;;5080558;28;20515;-67
2023/12/08 09:32:35;;;;;;;28.10;20.60;;;3.00;99.90;;;;;;5079984;28;20510;-66
2023/12/08 09:35:02;;;;;;;29.40;19.90;;;3.00;99.90;;;;;;5080655;28;20457;-66
2023/12/08 09:37:31;;;;;;;28.20;20.90;;;3.00;99.90;;;;;;5079871;28;20492;-66
2023/12/08 09:39:58;;;;;;;26.77;19.83;;;3.00;99.90;;;;;;5080604;28;20463;-66
2023/12/08 09:42:32;;;;;;;27.93;18.93;;;3.00;99.90;;;;;;5080438;28;20564;-66
2023/12/08 09:45:00;;;;;;;26.37;20.37;;;3.10;99.90;;;;;;5080574;28;20913;-66
2023/12/08 09:47:29;;;;;;;28.20;20.47;;;3.00;99.90;;;;;;5080384;28;20453;-66
2023/12/08 09:49:59;;;;;;;28.53;21.77;;;3.10;99.90;;;;;;5080190;28;20836;-67
2023/12/08 09:52:26;;;;;;;28.47;20.43;;;3.20;99.90;;;;;;5080241;28;20484;-66
2023/12/08 09:54:55;;;;;;;28.30;20.57;;;3.20;99.90;;;;;;5080315;28;20758;-66
2023/12/08 09:57:24;;;;;;;25.33;20.17;;;3.20;99.90;;;;;;5079972;28;20475;-66
2023/12/08 09:59:52;;;;;;;24.70;19.20;;;3.30;99.90;;;;;;5079887;28;20526;-66
2023/12/08 10:02:19;;;;;;;31.37;20.53;;;3.30;99.90;;;;;;5079987;28;20511;-67
2023/12/08 10:04:47;;;;;;;25.60;18.83;;;3.30;99.90;;;;;;5079579;28;20591;-66
2023/12/08 10:07:15;;;;;;;29.00;20.30;;;3.30;99.90;;;;;;5078792;28;20493;-67
2023/12/08 10:09:43;;;;;;;23.67;17.73;;;3.30;99.90;;;;;;5078895;28;20487;-67
2023/12/08 10:12:12;;;;;;;29.63;20.80;;;3.30;99.90;;;;;;5059913;28;20466;-66
2023/12/08 10:14:52;;;;;;;25.13;19.27;;;3.30;99.90;;;;;;5067649;28;20952;-66
2023/12/08 10:17:20;;;;;;;25.37;17.87;;;3.30;99.90;;;;;;5079682;28;20457;-67
2023/12/08 10:19:47;;;;;;;25.67;19.47;;;3.30;99.90;;;;;;5079120;28;20943;-66
2023/12/08 10:22:15;;;;;;;24.53;19.33;;;3.30;99.90;;;;;;5077100;28;20516;-66
2023/12/08 10:24:42;;;;;;;26.43;19.07;;;3.30;99.90;;;;;;5077001;28;20744;-67
2023/12/08 10:27:11;;;;;;;24.17;19.27;;;3.30;99.90;;;;;;5075969;28;20501;-67
2023/12/08 10:29:39;;;;;;;30.40;19.33;;;3.30;99.90;;;;;;5077330;28;20464;-66
2023/12/08 10:32:07;;;;;;;27.70;19.13;;;3.40;99.90;;;;;;5077466;28;20591;-68
2023/12/08 10:34:34;;;;;;;23.60;18.20;;;3.40;99.90;;;;;;5078616;28;20457;-67
2023/12/08 10:37:01;;;;;;;27.30;19.77;;;3.40;99.90;;;;;;5077995;28;20468;-66
2023/12/08 10:39:29;;;;;;;25.80;19.07;;;3.40;99.90;;;;;;5076812;28;20457;-67
2023/12/08 10:41:56;;;;;;;24.90;19.20;;;3.40;99.90;;;;;;5074754;28;20461;-67
2023/12/08 10:44:25;;;;;;;23.50;17.27;;;3.40;99.90;;;;;;5069568;28;20903;-66
2023/12/08 10:46:52;;;;;;;25.00;18.40;;;3.50;99.90;;;;;;5075345;28;20481;-68
2023/12/08 10:49:21;;;;;;;24.20;18.20;;;3.50;99.90;;;;;;5076199;28;20458;-67
2023/12/08 10:51:49;;;;;;;28.17;20.30;;;3.50;99.90;;;;;;5075914;28;20461;-66
2023/12/08 10:54:18;;;;;;;25.10;18.77;;;3.50;99.90;;;;;;5076989;28;20468;-66
2023/12/08 10:56:46;;;;;;;24.27;18.40;;;3.50;99.90;;;;;;5077593;28;20471;-66
2023/12/08 10:59:19;;;;;;;26.97;18.30;;;3.50;99.90;;;;;;5077593;28;20462;-67
2023/12/08 11:01:49;;;;;;;23.20;17.07;;;3.50;99.90;;;;;;5077791;28;20462;-67
2023/12/08 11:04:21;;;;;;;23.83;17.47;;;3.60;99.90;;;;;;5077162;28;20493;-66
2023/12/08 11:06:56;;;;;;;22.60;16.10;;;3.50;99.90;;;;;;5077235;28;20879;-66
2023/12/08 11:09:26;;;;;;;24.87;16.70;;;3.50;99.90;;;;;;5077066;28;20985;-67
2023/12/08 11:11:56;;;;;;;23.50;17.37;;;3.50;99.90;;;;;;5077330;28;20560;-67
2023/12/08 11:14:33;;;;;;;22.40;17.60;;;3.60;99.90;;;;;;5077446;28;20461;-67
2023/12/08 11:17:06;;;;;;;22.27;16.17;;;3.60;99.90;;;;;;5077931;28;20476;-67
2023/12/08 11:19:35;;;;;;;21.60;16.27;;;3.60;99.90;;;;;;5078706;28;20457;-68
2023/12/08 11:22:02;;;;;;;23.10;16.17;;;3.70;99.90;;;;;;5078753;28;20494;-67
2023/12/08 11:24:31;;;;;;;22.10;15.03;;;3.70;99.90;;;;;;5077806;28;20752;-68
2023/12/08 11:27:06;;;;;;;22.60;16.60;;;3.80;99.90;;;;;;5077170;28;20828;-68
2023/12/08 11:29:42;;;;;;;19.60;14.67;;;3.90;99.90;;;;;;5076866;28;20457;-68
2023/12/08 11:32:19;;;;;;;19.77;15.50;;;4.10;99.90;;;;;;5077040;28;20456;-68
2023/12/08 11:34:54;;;;;;;22.17;16.17;;;4.10;99.90;;;;;;5077110;28;20471;-68
2023/12/08 11:37:23;;;;;;;22.17;14.93;;;4.10;99.90;;;;;;5077098;28;20564;-67
2023/12/08 11:39:51;;;;;;;19.83;15.93;;;4.20;99.90;;;;;;5077200;28;20472;-67
2023/12/08 11:42:22;;;;;;;23.47;15.90;;;4.30;99.90;;;;;;5077925;28;20865;-66
2023/12/08 11:44:50;;;;;;;26.80;17.60;;;4.30;99.90;;;;;;5077666;28;20461;-67
2023/12/08 11:47:22;;;;;;;18.00;14.43;;;4.30;99.90;;;;;;5077960;28;20714;-67
2023/12/08 11:49:49;;;;;;;21.00;14.90;;;4.40;99.90;;;;;;5077303;28;20469;-67
2023/12/08 11:52:21;;;;;;;20.93;14.97;;;4.40;99.90;;;;;;5078218;28;20831;-67
2023/12/08 11:55:06;;;;;;;22.17;17.00;;;4.40;99.90;;;;;;5077503;28;20448;-67
2023/12/08 11:57:36;;;;;;;20.40;15.53;;;4.50;99.90;;;;;;5057760;28;20512;-67
2023/12/08 12:00:07;;;;;;;22.13;15.40;;;4.50;99.90;;;;;;5057983;28;20484;-68
2023/12/08 12:02:36;;;;;;;17.10;13.53;;;4.50;99.90;;;;;;5058210;28;20875;-68
2023/12/08 12:05:04;;;;;;;26.20;16.27;;;4.50;99.90;;;;;;5057866;28;20938;-68
2023/12/08 12:07:32;;;;;;;23.40;16.87;;;4.60;99.90;;;;;;5062424;28;20500;-68
2023/12/08 12:10:02;;;;;;;19.87;14.50;;;4.70;99.90;;;;;;5075089;28;20548;-68
2023/12/08 12:12:32;;;;;;;21.37;15.10;;;4.60;99.90;;;;;;5074649;28;20461;-68
2023/12/08 12:15:05;;;;;;;19.87;14.20;;;4.60;99.90;;;;;;5076397;28;20469;-68
2023/12/08 12:17:33;;;;;;;21.47;14.57;;;4.60;99.90;;;;;;5075172;28;20775;-68
2023/12/08 12:20:02;;;;;;;23.83;16.67;;;4.70;99.90;;;;;;5075255;28;20461;-68
2023/12/08 12:22:29;;;;;;;23.33;16.20;;;4.70;99.90;;;;;;5075609;28;20432;-68
2023/12/08 12:24:56;;;;;;;21.23;15.33;;;4.70;99.90;;;;;;5076007;28;20883;-69
2023/12/08 12:27:24;;;;;;;23.57;14.93;;;4.70;99.90;;;;;;5076288;28;21019;-68
2023/12/08 12:29:51;;;;;;;19.80;15.50;;;4.70;99.90;;;;;;5076067;28;20463;-67
2023/12/08 12:32:19;;;;;;;19.20;14.73;;;4.70;99.90;;;;;;5076179;28;20461;-67
2023/12/08 12:34:46;;;;;;;17.67;14.00;;;4.70;99.90;;;;;;5076459;28;20496;-68
2023/12/08 12:37:15;;;;;;;24.40;17.50;;;4.60;99.90;;;;;;5076128;28;20453;-67
2023/12/08 12:39:43;;;;;;;29.87;19.80;;;4.60;99.90;;;;;;5074404;28;20501;-67
2023/12/08 12:42:13;;;;;;;21.83;15.77;;;4.60;99.90;;;;;;5055729;28;20788;-67
2023/12/08 12:44:45;;;;;;;24.40;15.17;;;4.60;99.90;;;;;;5055557;28;20501;-68
2023/12/08 12:47:13;;;;;;;38.60;22.10;;;4.50;99.90;;;;;;5055998;28;20583;-67